GMFF/FEZ METAR and TAF weather

Enter ICAO airport designator
Station Type Date Time Source
GMFF METAR 2022/06/28 16:00 UTC NOAA

GMFF 281600Z 28008KT 220V330 CAVOK 32/09 Q1016 NOSIG


Station Type Date Time Source
GMFF Decoded METAR 2022/06/28 16:00 UTC NOAA

Fes-Sais, Morocco (GMFF) 33-56N 004-59W 579M
Jun 28, 2022 - 12:00 PM EDT / 2022.06.28 1600 UTC
Wind: from the W (280 degrees) at 9 MPH (8 KT) (direction variable):0
Visibility: greater than 7 mile(s):0
Temperature: 89 F (32 C)
Dew Point: 48 F (9 C)
Relative Humidity: 24%
Pressure (altimeter): 30.00 in. Hg (1016 hPa)
ob: GMFF 281600Z 28008KT 220V330 CAVOK 32/09 Q1016 NOSIG
cycle: 16

Station Type Date Time Source
GMFF TAF 2022/06/28 12:25 UTC NOAA

TAF GMFF 281100Z 2812/2918 03004KT CAVOK

Example: see airport list